sensor_id;sensor_type;location;lat;lon;timestamp;temperature;humidity
23544;DHT22;11950;51.230;4.012;2023-06-22T00:00:53;18.90;99.90
23544;DHT22;11950;51.230;4.012;2023-06-22T00:03:22;19.00;99.90
23544;DHT22;11950;51.230;4.012;2023-06-22T00:05:48;19.00;99.90
23544;DHT22;11950;51.230;4.012;2023-06-22T00:08:15;18.90;99.90
23544;DHT22;11950;51.230;4.012;2023-06-22T00:10:42;18.90;99.90
23544;DHT22;11950;51.230;4.012;2023-06-22T00:13:09;18.90;99.90
23544;DHT22;11950;51.230;4.012;2023-06-22T00:15:37;18.80;99.90
23544;DHT22;11950;51.230;4.012;2023-06-22T00:18:07;18.80;99.90
23544;DHT22;11950;51.230;4.012;2023-06-22T00:20:33;18.80;99.90
23544;DHT22;11950;51.230;4.012;2023-06-22T00:23:04;18.70;99.90
23544;DHT22;11950;51.230;4.012;2023-06-22T00:25:40;18.70;99.90
23544;DHT22;11950;51.230;4.012;2023-06-22T00:28:07;18.70;99.90
23544;DHT22;11950;51.230;4.012;2023-06-22T00:30:35;18.70;99.90
23544;DHT22;11950;51.230;4.012;2023-06-22T00:33:01;18.70;99.90
23544;DHT22;11950;51.230;4.012;2023-06-22T00:35:28;18.60;99.90
23544;DHT22;11950;51.230;4.012;2023-06-22T00:37:58;18.50;99.90
23544;DHT22;11950;51.230;4.012;2023-06-22T00:40:31;18.50;99.90
23544;DHT22;11950;51.230;4.012;2023-06-22T00:42:58;18.50;99.90
23544;DHT22;11950;51.230;4.012;2023-06-22T00:45:26;18.40;99.90
23544;DHT22;11950;51.230;4.012;2023-06-22T00:47:53;18.40;99.90
23544;DHT22;11950;51.230;4.012;2023-06-22T00:50:22;18.20;99.90
23544;DHT22;11950;51.230;4.012;2023-06-22T00:52:53;18.30;99.90
23544;DHT22;11950;51.230;4.012;2023-06-22T00:55:23;18.30;99.90
23544;DHT22;11950;51.230;4.012;2023-06-22T00:57:50;18.30;99.90
23544;DHT22;11950;51.230;4.012;2023-06-22T01:00:16;18.30;99.90
23544;DHT22;11950;51.230;4.012;2023-06-22T01:02:46;18.30;99.90
23544;DHT22;11950;51.230;4.012;2023-06-22T01:05:17;18.30;99.90
23544;DHT22;11950;51.230;4.012;2023-06-22T01:08:27;18.30;99.90
23544;DHT22;11950;51.230;4.012;2023-06-22T01:11:18;18.30;99.90
23544;DHT22;11950;51.230;4.012;2023-06-22T01:16:37;18.30;99.90
23544;DHT22;11950;51.230;4.012;2023-06-22T01:19:37;18.30;99.90
23544;DHT22;11950;51.230;4.012;2023-06-22T01:22:08;18.20;99.90
23544;DHT22;11950;51.230;4.012;2023-06-22T01:29:55;18.00;99.90
23544;DHT22;11950;51.230;4.012;2023-06-22T01:32:30;18.00;99.90
23544;DHT22;11950;51.230;4.012;2023-06-22T01:34:58;18.00;99.90
23544;DHT22;11950;51.230;4.012;2023-06-22T01:37:29;17.90;99.90
23544;DHT22;11950;51.230;4.012;2023-06-22T01:39:58;18.00;99.90
23544;DHT22;11950;51.230;4.012;2023-06-22T01:42:25;18.00;99.90
23544;DHT22;11950;51.230;4.012;2023-06-22T01:44:53;18.00;99.90
23544;DHT22;11950;51.230;4.012;2023-06-22T01:47:23;18.10;99.90
23544;DHT22;11950;51.230;4.012;2023-06-22T01:49:50;18.10;99.90
23544;DHT22;11950;51.230;4.012;2023-06-22T01:52:20;18.10;99.90
23544;DHT22;11950;51.230;4.012;2023-06-22T01:54:47;18.00;99.90
23544;DHT22;11950;51.230;4.012;2023-06-22T01:57:14;18.00;99.90
23544;DHT22;11950;51.230;4.012;2023-06-22T02:00:02;18.00;99.90
23544;DHT22;11950;51.230;4.012;2023-06-22T02:02:35;17.90;99.90
23544;DHT22;11950;51.230;4.012;2023-06-22T02:05:07;17.90;99.90
23544;DHT22;11950;51.230;4.012;2023-06-22T02:07:46;17.80;99.90
23544;DHT22;11950;51.230;4.012;2023-06-22T02:10:15;17.80;99.90
23544;DHT22;11950;51.230;4.012;2023-06-22T02:12:43;17.90;99.90
23544;DHT22;11950;51.230;4.012;2023-06-22T02:15:11;17.90;99.90
23544;DHT22;11950;51.230;4.012;2023-06-22T02:17:39;17.90;99.90
23544;DHT22;11950;51.230;4.012;2023-06-22T02:20:05;17.80;99.90
23544;DHT22;11950;51.230;4.012;2023-06-22T02:22:35;17.80;99.90
23544;DHT22;11950;51.230;4.012;2023-06-22T02:25:02;17.80;99.90
23544;DHT22;11950;51.230;4.012;2023-06-22T02:27:28;17.80;99.90
23544;DHT22;11950;51.230;4.012;2023-06-22T02:29:54;17.70;99.90
23544;DHT22;11950;51.230;4.012;2023-06-22T02:32:21;17.80;99.90
23544;DHT22;11950;51.230;4.012;2023-06-22T02:34:47;17.80;99.90
23544;DHT22;11950;51.230;4.012;2023-06-22T02:37:16;17.70;99.90
23544;DHT22;11950;51.230;4.012;2023-06-22T02:39:42;17.80;99.90
23544;DHT22;11950;51.230;4.012;2023-06-22T02:42:08;17.80;99.90
23544;DHT22;11950;51.230;4.012;2023-06-22T02:44:37;17.80;99.90
23544;DHT22;11950;51.230;4.012;2023-06-22T02:47:03;17.80;99.90
23544;DHT22;11950;51.230;4.012;2023-06-22T02:49:30;17.70;99.90
23544;DHT22;11950;51.230;4.012;2023-06-22T02:51:57;17.70;99.90
23544;DHT22;11950;51.230;4.012;2023-06-22T02:54:23;17.70;99.90
23544;DHT22;11950;51.230;4.012;2023-06-22T02:56:52;17.60;99.90
23544;DHT22;11950;51.230;4.012;2023-06-22T02:59:20;17.70;99.90
23544;DHT22;11950;51.230;4.012;2023-06-22T03:01:52;17.70;99.90
23544;DHT22;11950;51.230;4.012;2023-06-22T03:04:23;17.60;99.90
23544;DHT22;11950;51.230;4.012;2023-06-22T03:06:49;17.60;99.90
23544;DHT22;11950;51.230;4.012;2023-06-22T03:09:17;17.60;99.90
23544;DHT22;11950;51.230;4.012;2023-06-22T03:11:43;17.60;99.90
23544;DHT22;11950;51.230;4.012;2023-06-22T03:14:10;17.50;99.90
23544;DHT22;11950;51.230;4.012;2023-06-22T03:16:36;17.60;99.90
23544;DHT22;11950;51.230;4.012;2023-06-22T03:19:03;17.50;99.90
23544;DHT22;11950;51.230;4.012;2023-06-22T03:21:29;17.50;99.90
23544;DHT22;11950;51.230;4.012;2023-06-22T03:23:55;17.50;99.90
23544;DHT22;11950;51.230;4.012;2023-06-22T03:26:22;17.50;99.90
23544;DHT22;11950;51.230;4.012;2023-06-22T03:28:50;17.50;99.90
23544;DHT22;11950;51.230;4.012;2023-06-22T03:31:16;17.40;99.90
23544;DHT22;11950;51.230;4.012;2023-06-22T03:33:42;17.40;99.90
23544;DHT22;11950;51.230;4.012;2023-06-22T03:36:08;17.40;99.90
23544;DHT22;11950;51.230;4.012;2023-06-22T03:38:35;17.50;99.90
23544;DHT22;11950;51.230;4.012;2023-06-22T03:41:01;17.50;99.90
23544;DHT22;11950;51.230;4.012;2023-06-22T03:43:29;17.50;99.90
23544;DHT22;11950;51.230;4.012;2023-06-22T03:45:56;17.50;99.90
23544;DHT22;11950;51.230;4.012;2023-06-22T03:48:22;17.50;99.90
23544;DHT22;11950;51.230;4.012;2023-06-22T03:50:48;17.50;99.90
23544;DHT22;11950;51.230;4.012;2023-06-22T03:53:14;17.40;99.90
23544;DHT22;11950;51.230;4.012;2023-06-22T03:55:48;17.40;99.90
23544;DHT22;11950;51.230;4.012;2023-06-22T03:58:20;17.50;99.90
23544;DHT22;11950;51.230;4.012;2023-06-22T04:00:47;17.50;99.90
23544;DHT22;11950;51.230;4.012;2023-06-22T04:03:14;17.50;99.90
23544;DHT22;11950;51.230;4.012;2023-06-22T04:05:41;17.50;99.90
23544;DHT22;11950;51.230;4.012;2023-06-22T04:08:07;17.40;99.90
23544;DHT22;11950;51.230;4.012;2023-06-22T04:10:34;17.40;99.90
23544;DHT22;11950;51.230;4.012;2023-06-22T04:13:00;17.40;99.90
23544;DHT22;11950;51.230;4.012;2023-06-22T04:15:26;17.40;99.90
23544;DHT22;11950;51.230;4.012;2023-06-22T04:17:55;17.40;99.90
23544;DHT22;11950;51.230;4.012;2023-06-22T04:20:21;17.50;99.90
23544;DHT22;11950;51.230;4.012;2023-06-22T04:22:47;17.50;99.90
23544;DHT22;11950;51.230;4.012;2023-06-22T04:25:14;17.50;99.90
23544;DHT22;11950;51.230;4.012;2023-06-22T04:27:41;17.50;99.90
23544;DHT22;11950;51.230;4.012;2023-06-22T04:30:08;17.50;99.90
23544;DHT22;11950;51.230;4.012;2023-06-22T04:32:35;17.50;99.90
23544;DHT22;11950;51.230;4.012;2023-06-22T04:35:05;17.60;99.90
23544;DHT22;11950;51.230;4.012;2023-06-22T04:37:33;17.50;99.90
23544;DHT22;11950;51.230;4.012;2023-06-22T04:40:00;17.60;99.90
23544;DHT22;11950;51.230;4.012;2023-06-22T04:42:26;17.60;99.90
23544;DHT22;11950;51.230;4.012;2023-06-22T04:44:53;17.60;99.90
23544;DHT22;11950;51.230;4.012;2023-06-22T04:47:19;17.60;99.90
23544;DHT22;11950;51.230;4.012;2023-06-22T04:49:46;17.60;99.90
23544;DHT22;11950;51.230;4.012;2023-06-22T04:52:13;17.60;99.90
23544;DHT22;11950;51.230;4.012;2023-06-22T04:54:40;17.70;99.90
23544;DHT22;11950;51.230;4.012;2023-06-22T04:57:14;17.70;99.90
23544;DHT22;11950;51.230;4.012;2023-06-22T04:59:41;17.80;99.90
23544;DHT22;11950;51.230;4.012;2023-06-22T05:02:08;17.80;99.90
23544;DHT22;11950;51.230;4.012;2023-06-22T05:04:34;17.90;99.90
23544;DHT22;11950;51.230;4.012;2023-06-22T05:07:06;17.90;99.90
23544;DHT22;11950;51.230;4.012;2023-06-22T05:09:33;18.00;99.90
23544;DHT22;11950;51.230;4.012;2023-06-22T05:11:59;18.10;99.90
23544;DHT22;11950;51.230;4.012;2023-06-22T05:14:29;18.10;99.90
23544;DHT22;11950;51.230;4.012;2023-06-22T05:16:56;18.20;99.90
23544;DHT22;11950;51.230;4.012;2023-06-22T05:19:25;18.20;99.90
23544;DHT22;11950;51.230;4.012;2023-06-22T05:21:57;18.30;99.90
23544;DHT22;11950;51.230;4.012;2023-06-22T05:24:23;18.40;99.90
23544;DHT22;11950;51.230;4.012;2023-06-22T05:26:49;18.40;99.90
23544;DHT22;11950;51.230;4.012;2023-06-22T05:29:16;18.40;99.90
23544;DHT22;11950;51.230;4.012;2023-06-22T05:31:42;18.50;99.90
23544;DHT22;11950;51.230;4.012;2023-06-22T05:34:08;18.60;99.90
23544;DHT22;11950;51.230;4.012;2023-06-22T05:36:34;18.60;99.90
23544;DHT22;11950;51.230;4.012;2023-06-22T05:39:11;18.70;99.90
23544;DHT22;11950;51.230;4.012;2023-06-22T05:41:39;18.80;99.90
23544;DHT22;11950;51.230;4.012;2023-06-22T05:44:05;18.90;99.90
23544;DHT22;11950;51.230;4.012;2023-06-22T05:46:32;18.90;99.90
23544;DHT22;11950;51.230;4.012;2023-06-22T05:48:58;19.00;99.90
23544;DHT22;11950;51.230;4.012;2023-06-22T05:51:25;19.00;99.90
23544;DHT22;11950;51.230;4.012;2023-06-22T05:53:51;19.10;99.90
23544;DHT22;11950;51.230;4.012;2023-06-22T05:56:17;19.20;99.90
23544;DHT22;11950;51.230;4.012;2023-06-22T05:58:44;19.20;99.90
23544;DHT22;11950;51.230;4.012;2023-06-22T06:01:10;19.30;99.90
23544;DHT22;11950;51.230;4.012;2023-06-22T06:03:36;19.40;99.90
23544;DHT22;11950;51.230;4.012;2023-06-22T06:06:07;19.40;99.90
23544;DHT22;11950;51.230;4.012;2023-06-22T06:08:33;19.50;99.90
23544;DHT22;11950;51.230;4.012;2023-06-22T06:11:00;19.60;99.90
23544;DHT22;11950;51.230;4.012;2023-06-22T06:13:26;19.60;99.90
23544;DHT22;11950;51.230;4.012;2023-06-22T06:15:52;19.70;99.90
23544;DHT22;11950;51.230;4.012;2023-06-22T06:18:21;19.70;99.90
23544;DHT22;11950;51.230;4.012;2023-06-22T06:20:47;19.80;99.90
23544;DHT22;11950;51.230;4.012;2023-06-22T06:23:13;19.90;99.90
23544;DHT22;11950;51.230;4.012;2023-06-22T06:25:40;19.90;99.90
23544;DHT22;11950;51.230;4.012;2023-06-22T06:28:06;20.00;99.90
23544;DHT22;11950;51.230;4.012;2023-06-22T06:30:33;20.00;99.90
23544;DHT22;11950;51.230;4.012;2023-06-22T06:32:59;20.10;99.90
23544;DHT22;11950;51.230;4.012;2023-06-22T06:35:25;20.20;99.90
23544;DHT22;11950;51.230;4.012;2023-06-22T06:37:51;20.20;99.90
23544;DHT22;11950;51.230;4.012;2023-06-22T06:40:18;20.30;99.90
23544;DHT22;11950;51.230;4.012;2023-06-22T06:42:46;20.30;99.90
23544;DHT22;11950;51.230;4.012;2023-06-22T06:45:17;20.40;99.90
23544;DHT22;11950;51.230;4.012;2023-06-22T06:47:44;20.50;99.90
23544;DHT22;11950;51.230;4.012;2023-06-22T06:50:11;20.50;99.90
23544;DHT22;11950;51.230;4.012;2023-06-22T06:52:38;20.60;99.90
23544;DHT22;11950;51.230;4.012;2023-06-22T06:55:04;20.70;99.90
23544;DHT22;11950;51.230;4.012;2023-06-22T06:57:34;20.80;99.90
23544;DHT22;11950;51.230;4.012;2023-06-22T07:00:00;20.80;99.90
23544;DHT22;11950;51.230;4.012;2023-06-22T07:02:27;20.90;99.90
23544;DHT22;11950;51.230;4.012;2023-06-22T07:04:55;21.00;99.90
23544;DHT22;11950;51.230;4.012;2023-06-22T07:07:22;21.00;99.90
23544;DHT22;11950;51.230;4.012;2023-06-22T07:09:48;21.10;99.90
23544;DHT22;11950;51.230;4.012;2023-06-22T07:12:14;21.10;99.90
23544;DHT22;11950;51.230;4.012;2023-06-22T07:14:41;21.20;99.90
23544;DHT22;11950;51.230;4.012;2023-06-22T07:17:07;21.20;99.90
23544;DHT22;11950;51.230;4.012;2023-06-22T07:19:33;21.30;99.90
23544;DHT22;11950;51.230;4.012;2023-06-22T07:22:00;21.30;99.90
23544;DHT22;11950;51.230;4.012;2023-06-22T07:24:26;21.30;99.90
23544;DHT22;11950;51.230;4.012;2023-06-22T07:26:53;21.40;99.90
23544;DHT22;11950;51.230;4.012;2023-06-22T07:29:20;21.40;99.90
23544;DHT22;11950;51.230;4.012;2023-06-22T07:31:50;21.50;99.90
23544;DHT22;11950;51.230;4.012;2023-06-22T07:34:17;21.50;99.90
23544;DHT22;11950;51.230;4.012;2023-06-22T07:36:44;21.50;99.90
23544;DHT22;11950;51.230;4.012;2023-06-22T07:39:11;21.50;99.90
23544;DHT22;11950;51.230;4.012;2023-06-22T07:41:39;21.50;99.90
23544;DHT22;11950;51.230;4.012;2023-06-22T07:44:07;21.60;99.90
23544;DHT22;11950;51.230;4.012;2023-06-22T07:46:34;21.60;99.90
23544;DHT22;11950;51.230;4.012;2023-06-22T07:49:00;21.60;99.90
23544;DHT22;11950;51.230;4.012;2023-06-22T07:51:27;21.70;99.90
23544;DHT22;11950;51.230;4.012;2023-06-22T07:53:53;21.70;99.90
23544;DHT22;11950;51.230;4.012;2023-06-22T07:56:20;21.80;99.90
23544;DHT22;11950;51.230;4.012;2023-06-22T07:58:47;21.80;99.90
23544;DHT22;11950;51.230;4.012;2023-06-22T08:01:14;21.80;99.90
23544;DHT22;11950;51.230;4.012;2023-06-22T08:03:40;21.80;99.90
23544;DHT22;11950;51.230;4.012;2023-06-22T08:06:07;21.90;99.90
23544;DHT22;11950;51.230;4.012;2023-06-22T08:08:36;21.90;99.90
23544;DHT22;11950;51.230;4.012;2023-06-22T08:11:02;21.90;99.90
23544;DHT22;11950;51.230;4.012;2023-06-22T08:13:28;22.00;99.90
23544;DHT22;11950;51.230;4.012;2023-06-22T08:15:55;22.00;99.90
23544;DHT22;11950;51.230;4.012;2023-06-22T08:18:21;22.00;99.90
23544;DHT22;11950;51.230;4.012;2023-06-22T08:20:47;22.00;99.90
23544;DHT22;11950;51.230;4.012;2023-06-22T08:23:13;22.00;99.90
23544;DHT22;11950;51.230;4.012;2023-06-22T08:25:40;22.00;99.90
23544;DHT22;11950;51.230;4.012;2023-06-22T08:28:06;22.10;99.90
23544;DHT22;11950;51.230;4.012;2023-06-22T08:30:33;22.10;99.90
23544;DHT22;11950;51.230;4.012;2023-06-22T08:32:59;22.10;99.90
23544;DHT22;11950;51.230;4.012;2023-06-22T08:35:25;22.20;99.90
23544;DHT22;11950;51.230;4.012;2023-06-22T08:37:51;22.10;99.90
23544;DHT22;11950;51.230;4.012;2023-06-22T08:40:20;22.20;99.90
23544;DHT22;11950;51.230;4.012;2023-06-22T08:42:47;22.20;99.90
23544;DHT22;11950;51.230;4.012;2023-06-22T08:45:14;22.20;99.90
23544;DHT22;11950;51.230;4.012;2023-06-22T08:47:41;22.20;99.90
23544;DHT22;11950;51.230;4.012;2023-06-22T08:50:11;22.30;99.90
23544;DHT22;11950;51.230;4.012;2023-06-22T08:52:39;22.30;99.90
23544;DHT22;11950;51.230;4.012;2023-06-22T08:55:08;22.30;99.90
23544;DHT22;11950;51.230;4.012;2023-06-22T08:57:35;22.30;99.90
23544;DHT22;11950;51.230;4.012;2023-06-22T09:00:06;22.30;99.90
23544;DHT22;11950;51.230;4.012;2023-06-22T09:02:38;22.40;99.90
23544;DHT22;11950;51.230;4.012;2023-06-22T09:05:06;22.40;99.90
23544;DHT22;11950;51.230;4.012;2023-06-22T09:07:33;22.40;99.90
23544;DHT22;11950;51.230;4.012;2023-06-22T09:10:00;22.50;99.90
23544;DHT22;11950;51.230;4.012;2023-06-22T09:12:27;22.40;99.90
23544;DHT22;11950;51.230;4.012;2023-06-22T09:14:56;22.40;99.90
23544;DHT22;11950;51.230;4.012;2023-06-22T09:17:23;22.50;99.90
23544;DHT22;11950;51.230;4.012;2023-06-22T09:19:49;22.50;99.90
23544;DHT22;11950;51.230;4.012;2023-06-22T09:22:15;22.50;99.90
23544;DHT22;11950;51.230;4.012;2023-06-22T09:24:41;22.60;99.90
23544;DHT22;11950;51.230;4.012;2023-06-22T09:27:08;22.50;99.90
23544;DHT22;11950;51.230;4.012;2023-06-22T09:29:34;22.50;99.90
23544;DHT22;11950;51.230;4.012;2023-06-22T09:32:00;22.50;99.90
23544;DHT22;11950;51.230;4.012;2023-06-22T09:34:27;22.60;99.90
23544;DHT22;11950;51.230;4.012;2023-06-22T09:36:54;22.50;99.90
23544;DHT22;11950;51.230;4.012;2023-06-22T09:39:21;22.50;99.90
23544;DHT22;11950;51.230;4.012;2023-06-22T09:41:47;22.60;99.90
23544;DHT22;11950;51.230;4.012;2023-06-22T09:44:13;22.60;99.90
23544;DHT22;11950;51.230;4.012;2023-06-22T09:46:39;22.50;99.90
23544;DHT22;11950;51.230;4.012;2023-06-22T09:49:06;22.50;99.90
23544;DHT22;11950;51.230;4.012;2023-06-22T09:51:32;22.50;99.90
23544;DHT22;11950;51.230;4.012;2023-06-22T09:53:58;22.50;99.90
23544;DHT22;11950;51.230;4.012;2023-06-22T09:56:25;22.40;99.90
23544;DHT22;11950;51.230;4.012;2023-06-22T09:58:53;22.40;99.90
23544;DHT22;11950;51.230;4.012;2023-06-22T10:01:19;22.40;99.90
23544;DHT22;11950;51.230;4.012;2023-06-22T10:03:46;22.30;99.90
23544;DHT22;11950;51.230;4.012;2023-06-22T10:06:12;22.30;99.90
23544;DHT22;11950;51.230;4.012;2023-06-22T10:08:39;22.20;99.90
23544;DHT22;11950;51.230;4.012;2023-06-22T10:11:06;22.20;99.90
23544;DHT22;11950;51.230;4.012;2023-06-22T10:13:33;22.10;99.90
23544;DHT22;11950;51.230;4.012;2023-06-22T10:15:59;22.10;99.90
23544;DHT22;11950;51.230;4.012;2023-06-22T10:18:25;22.00;99.90
23544;DHT22;11950;51.230;4.012;2023-06-22T10:20:52;22.00;99.90
23544;DHT22;11950;51.230;4.012;2023-06-22T10:23:21;22.00;99.90
23544;DHT22;11950;51.230;4.012;2023-06-22T10:25:48;21.90;99.90
23544;DHT22;11950;51.230;4.012;2023-06-22T10:28:14;21.90;99.90
23544;DHT22;11950;51.230;4.012;2023-06-22T10:30:41;21.90;99.90
23544;DHT22;11950;51.230;4.012;2023-06-22T10:33:08;21.80;99.90
23544;DHT22;11950;51.230;4.012;2023-06-22T10:35:35;21.80;99.90
23544;DHT22;11950;51.230;4.012;2023-06-22T10:38:04;21.80;99.90
23544;DHT22;11950;51.230;4.012;2023-06-22T10:40:31;21.70;99.90
23544;DHT22;11950;51.230;4.012;2023-06-22T10:42:57;21.70;99.90
23544;DHT22;11950;51.230;4.012;2023-06-22T10:45:24;21.60;99.90
23544;DHT22;11950;51.230;4.012;2023-06-22T10:47:50;21.60;99.90
23544;DHT22;11950;51.230;4.012;2023-06-22T10:50:16;21.60;99.90
23544;DHT22;11950;51.230;4.012;2023-06-22T10:52:42;21.50;99.90
23544;DHT22;11950;51.230;4.012;2023-06-22T10:55:10;21.50;99.90
23544;DHT22;11950;51.230;4.012;2023-06-22T10:57:36;21.50;99.90
23544;DHT22;11950;51.230;4.012;2023-06-22T11:00:03;21.50;99.90
23544;DHT22;11950;51.230;4.012;2023-06-22T11:02:33;21.50;99.90
23544;DHT22;11950;51.230;4.012;2023-06-22T11:04:59;21.50;99.90
23544;DHT22;11950;51.230;4.012;2023-06-22T11:07:29;21.50;99.90
23544;DHT22;11950;51.230;4.012;2023-06-22T11:09:56;21.60;99.90
23544;DHT22;11950;51.230;4.012;2023-06-22T11:12:22;21.60;99.90
23544;DHT22;11950;51.230;4.012;2023-06-22T11:14:48;21.60;99.90
23544;DHT22;11950;51.230;4.012;2023-06-22T11:17:17;21.60;99.90
23544;DHT22;11950;51.230;4.012;2023-06-22T11:19:44;21.60;99.90
23544;DHT22;11950;51.230;4.012;2023-06-22T11:22:11;21.60;99.90
23544;DHT22;11950;51.230;4.012;2023-06-22T11:24:37;21.50;99.90
23544;DHT22;11950;51.230;4.012;2023-06-22T11:27:03;21.50;99.90
23544;DHT22;11950;51.230;4.012;2023-06-22T11:29:30;21.50;99.90
23544;DHT22;11950;51.230;4.012;2023-06-22T11:31:56;21.50;99.90
23544;DHT22;11950;51.230;4.012;2023-06-22T11:34:23;21.50;99.90
23544;DHT22;11950;51.230;4.012;2023-06-22T11:36:49;21.40;99.90
23544;DHT22;11950;51.230;4.012;2023-06-22T11:39:15;21.40;99.90
23544;DHT22;11950;51.230;4.012;2023-06-22T11:41:41;21.40;99.90
23544;DHT22;11950;51.230;4.012;2023-06-22T11:44:08;21.40;99.90
23544;DHT22;11950;51.230;4.012;2023-06-22T11:46:35;21.40;99.90
23544;DHT22;11950;51.230;4.012;2023-06-22T11:49:02;21.40;99.90
23544;DHT22;11950;51.230;4.012;2023-06-22T11:51:28;21.40;99.90
23544;DHT22;11950;51.230;4.012;2023-06-22T11:53:57;21.40;99.90
23544;DHT22;11950;51.230;4.012;2023-06-22T11:56:24;21.40;99.90
23544;DHT22;11950;51.230;4.012;2023-06-22T11:58:50;21.30;99.90
23544;DHT22;11950;51.230;4.012;2023-06-22T12:01:16;21.30;99.90
23544;DHT22;11950;51.230;4.012;2023-06-22T12:03:42;21.30;99.90
23544;DHT22;11950;51.230;4.012;2023-06-22T12:06:10;21.30;99.90
23544;DHT22;11950;51.230;4.012;2023-06-22T12:08:36;21.30;99.90
23544;DHT22;11950;51.230;4.012;2023-06-22T12:11:02;21.20;99.90
23544;DHT22;11950;51.230;4.012;2023-06-22T12:13:28;21.20;99.90
23544;DHT22;11950;51.230;4.012;2023-06-22T12:15:54;21.20;99.90
23544;DHT22;11950;51.230;4.012;2023-06-22T12:18:21;21.30;99.90
23544;DHT22;11950;51.230;4.012;2023-06-22T12:20:47;21.20;99.90
23544;DHT22;11950;51.230;4.012;2023-06-22T12:23:15;21.20;99.90
23544;DHT22;11950;51.230;4.012;2023-06-22T12:25:41;21.20;99.90
23544;DHT22;11950;51.230;4.012;2023-06-22T12:28:07;21.20;99.90
23544;DHT22;11950;51.230;4.012;2023-06-22T12:30:34;21.20;99.90
23544;DHT22;11950;51.230;4.012;2023-06-22T12:33:00;21.20;99.90
23544;DHT22;11950;51.230;4.012;2023-06-22T12:35:26;21.20;99.90
23544;DHT22;11950;51.230;4.012;2023-06-22T12:37:53;21.20;99.90
23544;DHT22;11950;51.230;4.012;2023-06-22T12:40:19;21.30;99.90
23544;DHT22;11950;51.230;4.012;2023-06-22T12:42:45;21.30;99.90
23544;DHT22;11950;51.230;4.012;2023-06-22T12:45:12;21.30;99.90
23544;DHT22;11950;51.230;4.012;2023-06-22T12:47:38;21.30;99.90
23544;DHT22;11950;51.230;4.012;2023-06-22T12:50:05;21.20;99.90
23544;DHT22;11950;51.230;4.012;2023-06-22T12:52:31;21.30;99.90
23544;DHT22;11950;51.230;4.012;2023-06-22T12:55:00;21.20;99.90
23544;DHT22;11950;51.230;4.012;2023-06-22T12:57:26;21.20;99.90
23544;DHT22;11950;51.230;4.012;2023-06-22T12:59:53;21.20;99.90
23544;DHT22;11950;51.230;4.012;2023-06-22T13:02:19;21.30;99.90
23544;DHT22;11950;51.230;4.012;2023-06-22T13:04:45;21.20;99.90
23544;DHT22;11950;51.230;4.012;2023-06-22T13:07:12;21.30;99.90
23544;DHT22;11950;51.230;4.012;2023-06-22T13:09:38;21.30;99.90
23544;DHT22;11950;51.230;4.012;2023-06-22T13:12:05;21.30;99.90
23544;DHT22;11950;51.230;4.012;2023-06-22T13:14:31;21.30;99.90
23544;DHT22;11950;51.230;4.012;2023-06-22T13:16:57;21.30;99.90
23544;DHT22;11950;51.230;4.012;2023-06-22T13:19:24;21.20;99.90
23544;DHT22;11950;51.230;4.012;2023-06-22T13:21:50;21.20;99.90
23544;DHT22;11950;51.230;4.012;2023-06-22T13:24:16;21.20;99.90
23544;DHT22;11950;51.230;4.012;2023-06-22T13:26:43;21.30;99.90
23544;DHT22;11950;51.230;4.012;2023-06-22T13:29:09;21.20;99.90
23544;DHT22;11950;51.230;4.012;2023-06-22T13:31:36;21.30;99.90
23544;DHT22;11950;51.230;4.012;2023-06-22T13:34:03;21.30;99.90
23544;DHT22;11950;51.230;4.012;2023-06-22T13:36:29;21.30;99.90
23544;DHT22;11950;51.230;4.012;2023-06-22T13:38:56;21.30;99.90
23544;DHT22;11950;51.230;4.012;2023-06-22T13:41:22;21.20;99.90
23544;DHT22;11950;51.230;4.012;2023-06-22T13:43:49;21.20;99.90
23544;DHT22;11950;51.230;4.012;2023-06-22T13:46:15;21.20;99.90
23544;DHT22;11950;51.230;4.012;2023-06-22T13:48:41;21.20;99.90
23544;DHT22;11950;51.230;4.012;2023-06-22T13:51:07;21.20;99.90
23544;DHT22;11950;51.230;4.012;2023-06-22T13:53:34;21.20;99.90
23544;DHT22;11950;51.230;4.012;2023-06-22T13:56:00;21.20;99.90
23544;DHT22;11950;51.230;4.012;2023-06-22T13:58:27;21.20;99.90
23544;DHT22;11950;51.230;4.012;2023-06-22T14:00:53;21.20;99.90
23544;DHT22;11950;51.230;4.012;2023-06-22T14:03:19;21.10;99.90
23544;DHT22;11950;51.230;4.012;2023-06-22T14:05:45;21.10;99.90
23544;DHT22;11950;51.230;4.012;2023-06-22T14:08:12;21.10;99.90
23544;DHT22;11950;51.230;4.012;2023-06-22T14:10:39;21.10;99.90
23544;DHT22;11950;51.230;4.012;2023-06-22T14:13:05;21.10;99.90
23544;DHT22;11950;51.230;4.012;2023-06-22T14:15:32;21.10;99.90
23544;DHT22;11950;51.230;4.012;2023-06-22T14:17:58;21.10;99.90
23544;DHT22;11950;51.230;4.012;2023-06-22T14:20:24;21.10;99.90
23544;DHT22;11950;51.230;4.012;2023-06-22T14:22:51;21.10;99.90
23544;DHT22;11950;51.230;4.012;2023-06-22T14:25:18;21.10;99.90
23544;DHT22;11950;51.230;4.012;2023-06-22T14:27:44;21.10;99.90
23544;DHT22;11950;51.230;4.012;2023-06-22T14:30:10;21.20;99.90
23544;DHT22;11950;51.230;4.012;2023-06-22T14:32:36;21.20;99.90
23544;DHT22;11950;51.230;4.012;2023-06-22T14:35:03;21.30;99.90
23544;DHT22;11950;51.230;4.012;2023-06-22T14:37:29;21.40;99.90
23544;DHT22;11950;51.230;4.012;2023-06-22T14:39:55;21.40;99.90
23544;DHT22;11950;51.230;4.012;2023-06-22T14:42:22;21.40;99.90
23544;DHT22;11950;51.230;4.012;2023-06-22T14:44:48;21.40;99.90
23544;DHT22;11950;51.230;4.012;2023-06-22T14:47:14;21.40;99.90
23544;DHT22;11950;51.230;4.012;2023-06-22T14:49:41;21.40;99.90
23544;DHT22;11950;51.230;4.012;2023-06-22T14:52:07;21.40;99.90
23544;DHT22;11950;51.230;4.012;2023-06-22T14:54:34;21.40;99.90
23544;DHT22;11950;51.230;4.012;2023-06-22T14:57:00;21.50;99.90
23544;DHT22;11950;51.230;4.012;2023-06-22T14:59:26;21.50;99.90
23544;DHT22;11950;51.230;4.012;2023-06-22T15:01:52;21.50;99.90
23544;DHT22;11950;51.230;4.012;2023-06-22T15:04:19;21.50;99.90
23544;DHT22;11950;51.230;4.012;2023-06-22T15:06:45;21.60;99.90
23544;DHT22;11950;51.230;4.012;2023-06-22T15:09:11;21.60;99.90
23544;DHT22;11950;51.230;4.012;2023-06-22T15:11:37;21.60;99.90
23544;DHT22;11950;51.230;4.012;2023-06-22T15:14:04;21.70;99.90
23544;DHT22;11950;51.230;4.012;2023-06-22T15:16:30;21.70;99.90
23544;DHT22;11950;51.230;4.012;2023-06-22T15:18:56;21.70;99.90
23544;DHT22;11950;51.230;4.012;2023-06-22T15:21:22;21.80;99.90
23544;DHT22;11950;51.230;4.012;2023-06-22T15:23:49;21.90;99.90
23544;DHT22;11950;51.230;4.012;2023-06-22T15:26:15;21.90;99.90
23544;DHT22;11950;51.230;4.012;2023-06-22T15:28:42;21.90;99.90
23544;DHT22;11950;51.230;4.012;2023-06-22T15:31:09;21.90;99.90
23544;DHT22;11950;51.230;4.012;2023-06-22T15:33:35;21.90;99.90
23544;DHT22;11950;51.230;4.012;2023-06-22T15:36:03;22.00;99.90
23544;DHT22;11950;51.230;4.012;2023-06-22T15:38:32;22.00;99.90